ADDS METAR Data INFO
IDs: Format: Raw Decoded Include TAF

Data at: 0252 UTC 17 Jan 2018

KCGE 170235Z AUTO 00000KT 10SM SCT014 M01/M02 A3035 RMK A01
KCGE 170215Z AUTO 00000KT 10SM FEW014 FEW027 M01/M02 A3035 RMK A01
KCGE 170155Z AUTO 00000KT 10SM M00/M01 A3035 RMK A01
KCGE 170135Z AUTO 00000KT 10SM M00/M01 A3036 RMK A01
KCGE 170115Z AUTO 00000KT 10SM SCT016 BKN024 M00/M01 A3036 RMK A01
KCGE 170055Z AUTO 00000KT 10SM FEW016 01/M01 A3036 RMK A01
KCGE 170035Z AUTO 34004KT 10SM CLR 01/M01 A3036 RMK A01
KCGE 170015Z AUTO 34003KT 10SM CLR 01/M01 A3036 RMK A01
KCGE 162355Z AUTO 36004KT 10SM FEW022 01/M01 A3036 RMK A01
KCGE 162335Z AUTO 34003KT 10SM 01/M01 A3037 RMK A01
KCGE 162315Z AUTO 35003KT 10SM 00/M01 A3036 RMK A01
KCGE 162255Z AUTO 00000KT 10SM 00/M01 A3036 RMK A01
KCGE 162235Z AUTO 00000KT 10SM CLR 01/M01 A3036 RMK A01
KCGE 162215Z AUTO 00000KT 10SM CLR 01/M01 A3036 RMK A01
KCGE 162155Z AUTO 00000KT 10SM CLR 01/M01 A3036 RMK A01
KCGE 162135Z AUTO 00000KT 10SM CLR 02/M01 A3036 RMK A01
KCGE 162115Z AUTO 34005KT 10SM CLR 01/M01 A3036 RMK A01
KCGE 162055Z AUTO 36005KT 10SM CLR 02/M01 A3036 RMK A01
KCGE 162035Z AUTO 35006KT 10SM CLR 03/M01 A3036 RMK A01
KCGE 162015Z AUTO 34004KT 10SM CLR 04/M00 A3037 RMK A01
KCGE 161955Z AUTO 34005KT 10SM CLR 05/M00 A3037 RMK A01
KCGE 161935Z AUTO 35004KT 10SM CLR 06/M00 A3037 RMK A01
KCGE 161915Z AUTO 34005KT 10SM CLR 05/M00 A3038 RMK A01
KCGE 161855Z AUTO VRB03KT 10SM CLR 07/00 A3039 RMK A01
KCGE 161835Z AUTO 14003KT 10SM CLR 07/00 A3040 RMK A01
KCGE 161815Z AUTO 14004KT 10SM CLR 07/00 A3040 RMK A01
KCGE 161755Z AUTO 16006KT 10SM CLR 07/00 A3041 RMK A01
KCGE 161735Z AUTO 11004KT 10SM CLR 06/00 A3042 RMK A01
KCGE 161715Z AUTO 00000KT 10SM CLR 06/00 A3043 RMK A01
KCGE 161655Z AUTO 00000KT 10SM CLR 06/M00 A3045 RMK A01
KCGE 161635Z AUTO 00000KT 10SM CLR 05/M01 A3046 RMK A01
KCGE 161615Z AUTO 00000KT 10SM CLR 04/M01 A3046 RMK A01
KCGE 161555Z AUTO 00000KT 10SM CLR 03/M02 A3047 RMK A01
KCGE 161535Z AUTO 00000KT 10SM CLR 02/M02 A3048 RMK A01
KCGE 161515Z AUTO 00000KT 10SM SCT009 02/M02 A3049 RMK A01
KCGE 161455Z AUTO 32004KT 10SM OVC010 01/M03 A3049 RMK A01
KCGE 161435Z AUTO 33005KT 9SM OVC010 00/M03 A3050 RMK A01
KCGE 161415Z AUTO 33005KT 9SM BKN010 00/M03 A3050 RMK A01
KCGE 161355Z AUTO 31004KT 10SM CLR M00/M03 A3049 RMK A01
KCGE 161335Z AUTO 00000KT 10SM CLR M01/M04 A3049 RMK A01
KCGE 161315Z AUTO 00000KT 9SM FEW008 BKN025 M01/M04 A3048 RMK A01
KCGE 161255Z AUTO 00000KT 9SM BKN009 OVC025 M01/M04 A3048 RMK A01
KCGE 161235Z AUTO 35003KT 9SM OVC010 M01/M04 A3050 RMK A01
KCGE 161215Z AUTO 00000KT 10SM OVC010 M01/M03 A3050 RMK A01
KCGE 161155Z AUTO 00000KT 10SM OVC010 M01/M03 A3050 RMK A01
KCGE 161135Z AUTO 00000KT 10SM OVC009 M01/M04 A3048 RMK A01
KCGE 161115Z AUTO 00000KT 10SM OVC009 M01/M04 A3048 RMK A01
KCGE 161055Z AUTO 00000KT 10SM M01/M04 A3048 RMK A01
KCGE 161035Z AUTO 00000KT 10SM OVC010 M01/M04 A3048 RMK A01
KCGE 161015Z AUTO 34004KT 10SM OVC010 M01/M04 A3048 RMK A01
KCGE 160955Z AUTO 34005KT 10SM OVC011 M01/M04 A3047 RMK A01
KCGE 160935Z AUTO 00000KT 9SM OVC011 M01/M03 A3047 RMK A01
KCGE 160915Z AUTO 00000KT 10SM OVC011 M01/M04 A3046 RMK A01
KCGE 160855Z AUTO 34004KT 10SM SCT007 OVC012 M01/M04 A3046 RMK A01
KCGE 160835Z AUTO 35005KT 10SM OVC006 M01/M04 A3046 RMK A01
KCGE 160815Z AUTO 33007KT 10SM OVC006 M01/M03 A3047 RMK A01
KCGE 160755Z AUTO 32006KT 10SM OVC006 M01/M03 A3047 RMK A01
KCGE 160735Z AUTO 32004KT 10SM OVC005 M01/M04 A3046 RMK A01
KCGE 160715Z AUTO 33005KT 10SM OVC006 M01/M04 A3046 RMK A01
KCGE 160655Z AUTO 32005KT 10SM OVC007 M01/M04 A3047 RMK A01
KCGE 160635Z AUTO 32005KT 10SM OVC008 M01/M04 A3046 RMK A01
KCGE 160615Z AUTO 32004KT 10SM OVC009 M01/M04 A3046 RMK A01
KCGE 160555Z AUTO 34004KT 10SM M01/M04 A3046 RMK A01
KCGE 160535Z AUTO 31003KT 10SM M01/M04 A3047 RMK A01
KCGE 160515Z AUTO 32004KT 10SM OVC008 M02/M04 A3047 RMK A01
KCGE 160455Z AUTO 31004KT 10SM OVC008 M02/M04 A3048 RMK A01
KCGE 160435Z AUTO 00000KT 10SM OVC007 M02/M04 A3048 RMK A01
KCGE 160415Z AUTO 00000KT 10SM OVC008 M02/M04 A3048 RMK A01
KCGE 160355Z AUTO 31004KT 10SM M02/M04 A3048 RMK A01
KCGE 160335Z AUTO 00000KT 10SM M02/M04 A3048 RMK A01
KCGE 160315Z AUTO 00000KT 10SM M02/M05 A3048 RMK A01
KCGE 160255Z AUTO 30003KT 10SM OVC014 M02/M04 A3049 RMK A01
KCGE 160235Z AUTO 00000KT 10SM BKN010 OVC015 M02/M05 A3048 RMK A01
KCGE 160215Z AUTO 34003KT 10SM OVC010 M02/M05 A3048 RMK A01
KCGE 160155Z AUTO 33004KT 10SM OVC011 M02/M05 A3048 RMK A01
KCGE 160135Z AUTO 33005KT 10SM M01/M04 A3049 RMK A01
KCGE 160115Z AUTO 32004KT 10SM OVC011 M01/M04 A3051 RMK A01
KCGE 160055Z AUTO 32003KT 10SM OVC011 M01/M04 A3050 RMK A01
KCGE 160035Z AUTO 00000KT 10SM OVC012 M01/M04 A3049 RMK A01
KCGE 160015Z AUTO 36005KT 10SM OVC012 M01/M04 A3048 RMK A01
KCGE 152355Z AUTO 35005KT 10SM OVC012 M01/M04 A3050 RMK A01
KCGE 152335Z AUTO 00000KT 10SM OVC013 M01/M04 A3050 RMK A01
KCGE 152315Z AUTO 03004KT 10SM OVC014 M01/M04 A3049 RMK A01
KCGE 152255Z AUTO 36003KT 10SM OVC014 M01/M04 A3049 RMK A01
KCGE 152235Z AUTO 00000KT 10SM OVC013 M01/M04 A3049 RMK A01
KCGE 152215Z AUTO 36004KT 10SM OVC014 M01/M04 A3050 RMK A01
KCGE 152155Z AUTO 01005KT 10SM BKN015 OVC044 M01/M04 A3049 RMK A01
KCGE 152135Z AUTO 01004KT 9SM BKN016 BKN042 M01/M04 A3050 RMK A01
KCGE 152115Z AUTO 10SM SCT017 BKN033 BKN044 M01/M04 A3049 RMK A01
KCGE 152055Z AUTO 35007KT 10SM FEW016 SCT033 OVC045 M01/M04 A3048 RMK A01
KCGE 152035Z AUTO 01006KT 10SM SCT016 SCT034 OVC045 M01/M04 A3048 RMK A01
KCGE 152015Z AUTO 01007KT 340V040 10SM BKN016 BKN024 OVC048 M01/M04 A3048 RMK A01
KCGE 151955Z AUTO VRB04G10KT 10SM BKN017 BKN024 OVC048 M01/M04 A3047 RMK A01
KCGE 151935Z AUTO 01004KT 5SM HZ OVC018 M01/M04 A3048 RMK A01
KCGE 151915Z AUTO 33007KT 2 1/2SM HZ BKN017 M01/M05 A3049 RMK A01
KCGE 151855Z AUTO 36007KT 10SM OVC017 M01/M05 A3049 RMK A01
KCGE 151835Z AUTO 35008KT 10SM BKN017 OVC044 M01/M06 A3049 RMK A01
KCGE 151815Z AUTO 34008KT 10SM BKN018 OVC032 M01/M06 A3049 RMK A01
KCGE 151755Z AUTO 35006KT 10SM SCT018 BKN031 OVC043 M01/M06 A3050 RMK A01
KCGE 151735Z AUTO 01008KT 10SM FEW018 OVC042 M01/M06 A3050 RMK A01
KCGE 151715Z AUTO 36009KT 10SM SCT018 BKN025 OVC042 M01/M06 A3052 RMK A01
KCGE 151655Z AUTO 36009KT 10SM FEW018 SCT025 BKN030 M02/M06 A3053 RMK A01
KCGE 151635Z AUTO 02009KT 10SM SCT020 BKN029 OVC044 M02/M06 A3055 RMK A01
KCGE 151615Z AUTO 36008KT 10SM OVC020 M02/M07 A3055 RMK A01
KCGE 151555Z AUTO 01009KT 10SM BKN018 BKN022 OVC049 M03/M07 A3056 RMK A01
KCGE 151535Z AUTO 36008KT 10SM SCT017 BKN024 OVC048 M03/M07 A3058 RMK A01
KCGE 151515Z AUTO 02008KT 10SM BKN025 BKN031 OVC041 M03/M07 A3058 RMK A01
KCGE 151455Z AUTO 01009G14KT 10SM BKN024 OVC030 M04/M08 A3059 RMK A01